sensor_id;sensor_type;location;lat;lon;timestamp;pressure;altitude;pressure_sealevel;temperature;humidity
64211;BME280;50528;48.514;14.394;2023-02-23T00:00:27;93481.13;;;4.67;78.21
64211;BME280;50528;48.514;14.394;2023-02-23T00:01:22;93481.88;;;4.65;78.12
64211;BME280;50528;48.514;14.394;2023-02-23T00:01:57;93483.30;;;4.64;78.21
64211;BME280;50528;48.514;14.394;2023-02-23T00:02:41;93482.71;;;4.62;78.05
64211;BME280;50528;48.514;14.394;2023-02-23T00:03:14;93477.83;;;4.60;78.21
64211;BME280;50528;48.514;14.394;2023-02-23T00:03:48;93481.63;;;4.61;78.37
64211;BME280;50528;48.514;14.394;2023-02-23T00:04:23;93479.98;;;4.60;78.26
64211;BME280;50528;48.514;14.394;2023-02-23T00:04:57;93481.19;;;4.59;78.08
64211;BME280;50528;48.514;14.394;2023-02-23T00:05:34;93480.05;;;4.60;78.28
64211;BME280;50528;48.514;14.394;2023-02-23T00:06:11;93479.15;;;4.59;78.15
64211;BME280;50528;48.514;14.394;2023-02-23T00:06:45;93480.92;;;4.57;78.21
64211;BME280;50528;48.514;14.394;2023-02-23T00:07:19;93480.44;;;4.58;78.09
64211;BME280;50528;48.514;14.394;2023-02-23T00:07:52;93480.92;;;4.57;78.10
64211;BME280;50528;48.514;14.394;2023-02-23T00:08:26;93470.04;;;4.53;78.05
64211;BME280;50528;48.514;14.394;2023-02-23T00:09:01;93476.48;;;4.58;78.01
64211;BME280;50528;48.514;14.394;2023-02-23T00:09:34;93473.58;;;4.55;77.96
64211;BME280;50528;48.514;14.394;2023-02-23T00:10:12;93478.70;;;4.56;78.21
64211;BME280;50528;48.514;14.394;2023-02-23T00:10:46;93477.77;;;4.53;78.21
64211;BME280;50528;48.514;14.394;2023-02-23T00:11:20;93475.15;;;4.51;78.17
64211;BME280;50528;48.514;14.394;2023-02-23T00:11:55;93475.81;;;4.52;78.36
64211;BME280;50528;48.514;14.394;2023-02-23T00:12:29;93476.15;;;4.52;78.29
64211;BME280;50528;48.514;14.394;2023-02-23T00:13:02;93475.14;;;4.51;78.16
64211;BME280;50528;48.514;14.394;2023-02-23T00:13:37;93472.66;;;4.52;78.32
64211;BME280;50528;48.514;14.394;2023-02-23T00:14:11;93477.55;;;4.51;78.26
64211;BME280;50528;48.514;14.394;2023-02-23T00:14:44;93476.51;;;4.51;78.39
64211;BME280;50528;48.514;14.394;2023-02-23T00:15:18;93477.35;;;4.51;78.26
64211;BME280;50528;48.514;14.394;2023-02-23T00:15:51;93477.15;;;4.52;78.27
64211;BME280;50528;48.514;14.394;2023-02-23T00:16:24;93473.19;;;4.51;78.29
64211;BME280;50528;48.514;14.394;2023-02-23T00:16:59;93475.56;;;4.49;78.33
64211;BME280;50528;48.514;14.394;2023-02-23T00:17:33;93464.89;;;4.44;78.38
64211;BME280;50528;48.514;14.394;2023-02-23T00:18:08;93476.48;;;4.49;78.27
64211;BME280;50528;48.514;14.394;2023-02-23T00:18:47;93478.81;;;4.48;78.29
64211;BME280;50528;48.514;14.394;2023-02-23T00:19:23;93474.55;;;4.47;78.20
64211;BME280;50528;48.514;14.394;2023-02-23T00:19:57;93472.81;;;4.46;78.46
64211;BME280;50528;48.514;14.394;2023-02-23T00:20:30;93474.46;;;4.45;78.20
64211;BME280;50528;48.514;14.394;2023-02-23T00:21:04;93475.17;;;4.45;78.20
64211;BME280;50528;48.514;14.394;2023-02-23T00:21:37;93475.94;;;4.46;78.21
64211;BME280;50528;48.514;14.394;2023-02-23T00:22:13;93476.86;;;4.45;78.14
64211;BME280;50528;48.514;14.394;2023-02-23T00:22:47;93470.81;;;4.45;78.10
64211;BME280;50528;48.514;14.394;2023-02-23T00:23:20;93476.02;;;4.45;78.32
64211;BME280;50528;48.514;14.394;2023-02-23T00:23:59;93472.90;;;4.45;78.19
64211;BME280;50528;48.514;14.394;2023-02-23T00:24:33;93476.25;;;4.46;78.13
64211;BME280;50528;48.514;14.394;2023-02-23T00:25:09;93475.73;;;4.44;78.18
64211;BME280;50528;48.514;14.394;2023-02-23T00:25:47;93475.66;;;4.44;78.16
64211;BME280;50528;48.514;14.394;2023-02-23T00:26:22;93476.39;;;4.44;78.08
64211;BME280;50528;48.514;14.394;2023-02-23T00:26:56;93471.55;;;4.44;78.18
64211;BME280;50528;48.514;14.394;2023-02-23T00:27:29;93471.11;;;4.43;78.16
64211;BME280;50528;48.514;14.394;2023-02-23T00:28:03;93472.64;;;4.43;77.93
64211;BME280;50528;48.514;14.394;2023-02-23T00:28:41;93475.35;;;4.44;77.99
64211;BME280;50528;48.514;14.394;2023-02-23T00:29:18;93474.19;;;4.43;78.00
64211;BME280;50528;48.514;14.394;2023-02-23T00:29:52;93472.55;;;4.43;77.96
64211;BME280;50528;48.514;14.394;2023-02-23T00:30:26;93473.13;;;4.43;77.84
64211;BME280;50528;48.514;14.394;2023-02-23T00:31:01;93473.85;;;4.42;77.97
64211;BME280;50528;48.514;14.394;2023-02-23T00:31:36;93471.16;;;4.41;77.76
64211;BME280;50528;48.514;14.394;2023-02-23T00:32:10;93471.83;;;4.43;78.01
64211;BME280;50528;48.514;14.394;2023-02-23T00:32:44;93472.15;;;4.43;77.74
64211;BME280;50528;48.514;14.394;2023-02-23T00:33:17;93473.59;;;4.43;77.83
64211;BME280;50528;48.514;14.394;2023-02-23T00:33:52;93476.98;;;4.43;77.82
64211;BME280;50528;48.514;14.394;2023-02-23T00:34:26;93474.68;;;4.42;77.63
64211;BME280;50528;48.514;14.394;2023-02-23T00:35:00;93473.73;;;4.42;77.86
64211;BME280;50528;48.514;14.394;2023-02-23T00:35:34;93474.61;;;4.42;77.62
64211;BME280;50528;48.514;14.394;2023-02-23T00:36:11;93470.87;;;4.41;77.70
64211;BME280;50528;48.514;14.394;2023-02-23T00:36:49;93472.74;;;4.41;77.49
64211;BME280;50528;48.514;14.394;2023-02-23T00:37:23;93472.64;;;4.40;77.56
64211;BME280;50528;48.514;14.394;2023-02-23T00:37:56;93472.64;;;4.40;77.62
64211;BME280;50528;48.514;14.394;2023-02-23T00:38:30;93471.55;;;4.40;77.74
64211;BME280;50528;48.514;14.394;2023-02-23T00:39:10;93474.08;;;4.39;77.56
64211;BME280;50528;48.514;14.394;2023-02-23T00:39:54;93470.66;;;4.38;77.67
64211;BME280;50528;48.514;14.394;2023-02-23T00:40:28;93477.14;;;4.37;77.79
64211;BME280;50528;48.514;14.394;2023-02-23T00:41:10;93471.55;;;4.37;77.82
64211;BME280;50528;48.514;14.394;2023-02-23T00:41:47;93470.39;;;4.36;77.70
64211;BME280;50528;48.514;14.394;2023-02-23T00:42:22;93473.61;;;4.35;77.74
64211;BME280;50528;48.514;14.394;2023-02-23T00:42:55;93474.50;;;4.35;77.84
64211;BME280;50528;48.514;14.394;2023-02-23T00:43:36;93469.95;;;4.34;77.65
64211;BME280;50528;48.514;14.394;2023-02-23T00:44:10;93471.55;;;4.34;77.83
64211;BME280;50528;48.514;14.394;2023-02-23T00:44:43;93472.95;;;4.34;77.86
64211;BME280;50528;48.514;14.394;2023-02-23T00:45:19;93473.31;;;4.34;77.79
64211;BME280;50528;48.514;14.394;2023-02-23T00:45:54;93472.06;;;4.34;77.71
64211;BME280;50528;48.514;14.394;2023-02-23T00:46:29;93472.80;;;4.34;77.92
64211;BME280;50528;48.514;14.394;2023-02-23T00:47:02;93472.67;;;4.34;77.91
64211;BME280;50528;48.514;14.394;2023-02-23T00:47:37;93466.42;;;4.33;78.03
64211;BME280;50528;48.514;14.394;2023-02-23T00:48:11;93475.91;;;4.34;77.82
64211;BME280;50528;48.514;14.394;2023-02-23T00:48:44;93469.07;;;4.33;77.81
64211;BME280;50528;48.514;14.394;2023-02-23T00:49:19;93472.02;;;4.34;78.04
64211;BME280;50528;48.514;14.394;2023-02-23T00:49:53;93475.27;;;4.33;78.04
64211;BME280;50528;48.514;14.394;2023-02-23T00:50:27;93474.35;;;4.34;77.97
64211;BME280;50528;48.514;14.394;2023-02-23T00:51:04;93476.43;;;4.34;77.87
64211;BME280;50528;48.514;14.394;2023-02-23T00:51:38;93475.76;;;4.34;78.03
64211;BME280;50528;48.514;14.394;2023-02-23T00:52:11;93473.31;;;4.34;77.97
64211;BME280;50528;48.514;14.394;2023-02-23T00:52:46;93478.48;;;4.34;77.93
64211;BME280;50528;48.514;14.394;2023-02-23T00:53:19;93472.39;;;4.34;77.87
64211;BME280;50528;48.514;14.394;2023-02-23T00:53:54;93470.95;;;4.33;78.13
64211;BME280;50528;48.514;14.394;2023-02-23T00:54:27;93475.75;;;4.34;78.15
64211;BME280;50528;48.514;14.394;2023-02-23T00:55:01;93474.88;;;4.34;78.12
64211;BME280;50528;48.514;14.394;2023-02-23T00:55:39;93475.73;;;4.35;78.09
64211;BME280;50528;48.514;14.394;2023-02-23T00:56:15;93475.55;;;4.34;78.20
64211;BME280;50528;48.514;14.394;2023-02-23T00:56:49;93477.63;;;4.34;78.21
64211;BME280;50528;48.514;14.394;2023-02-23T00:57:23;93476.31;;;4.34;78.20
64211;BME280;50528;48.514;14.394;2023-02-23T00:57:56;93475.16;;;4.33;78.21
64211;BME280;50528;48.514;14.394;2023-02-23T00:58:30;93469.58;;;4.31;78.31
64211;BME280;50528;48.514;14.394;2023-02-23T00:59:04;93475.31;;;4.33;78.26
64211;BME280;50528;48.514;14.394;2023-02-23T00:59:37;93473.11;;;4.34;78.35
64211;BME280;50528;48.514;14.394;2023-02-23T01:00:11;93472.90;;;4.34;78.39
64211;BME280;50528;48.514;14.394;2023-02-23T01:00:53;93472.27;;;4.34;78.53
64211;BME280;50528;48.514;14.394;2023-02-23T01:01:27;93472.39;;;4.34;78.43
64211;BME280;50528;48.514;14.394;2023-02-23T01:02:01;93469.02;;;4.35;78.36
64211;BME280;50528;48.514;14.394;2023-02-23T01:02:35;93468.82;;;4.35;78.44
64211;BME280;50528;48.514;14.394;2023-02-23T01:03:08;93465.13;;;4.35;78.44
64211;BME280;50528;48.514;14.394;2023-02-23T01:03:42;93470.30;;;4.36;78.50
64211;BME280;50528;48.514;14.394;2023-02-23T01:04:16;93469.77;;;4.36;78.57
64211;BME280;50528;48.514;14.394;2023-02-23T01:04:49;93466.33;;;4.35;78.47
64211;BME280;50528;48.514;14.394;2023-02-23T01:05:22;93467.75;;;4.36;78.61
64211;BME280;50528;48.514;14.394;2023-02-23T01:06:03;93468.93;;;4.36;78.39
64211;BME280;50528;48.514;14.394;2023-02-23T01:06:39;93465.83;;;4.34;78.63
64211;BME280;50528;48.514;14.394;2023-02-23T01:07:13;93466.98;;;4.33;78.51
64211;BME280;50528;48.514;14.394;2023-02-23T01:07:46;93464.68;;;4.31;78.63
64211;BME280;50528;48.514;14.394;2023-02-23T01:08:21;93470.80;;;4.30;78.48
64211;BME280;50528;48.514;14.394;2023-02-23T01:08:54;93466.77;;;4.27;78.32
64211;BME280;50528;48.514;14.394;2023-02-23T01:09:29;93470.58;;;4.28;78.31
64211;BME280;50528;48.514;14.394;2023-02-23T01:10:04;93472.63;;;4.27;78.22
64211;BME280;50528;48.514;14.394;2023-02-23T01:10:54;93472.04;;;4.22;78.22
64211;BME280;50528;48.514;14.394;2023-02-23T01:11:27;93469.98;;;4.20;78.34
64211;BME280;50528;48.514;14.394;2023-02-23T01:12:03;93470.88;;;4.18;78.03
64211;BME280;50528;48.514;14.394;2023-02-23T01:12:40;93474.39;;;4.17;78.24
64211;BME280;50528;48.514;14.394;2023-02-23T01:13:13;93475.98;;;4.17;78.25
64211;BME280;50528;48.514;14.394;2023-02-23T01:13:50;93474.98;;;4.16;78.05
64211;BME280;50528;48.514;14.394;2023-02-23T01:14:24;93473.55;;;4.15;78.07
64211;BME280;50528;48.514;14.394;2023-02-23T01:14:57;93474.52;;;4.15;78.07
64211;BME280;50528;48.514;14.394;2023-02-23T01:15:30;93472.99;;;4.14;78.14
64211;BME280;50528;48.514;14.394;2023-02-23T01:16:06;93475.80;;;4.14;78.04
64211;BME280;50528;48.514;14.394;2023-02-23T01:16:40;93469.81;;;4.12;77.85
64211;BME280;50528;48.514;14.394;2023-02-23T01:17:13;93473.93;;;4.12;78.06
64211;BME280;50528;48.514;14.394;2023-02-23T01:17:47;93473.62;;;4.12;77.84
64211;BME280;50528;48.514;14.394;2023-02-23T01:18:21;93472.36;;;4.11;78.02
64211;BME280;50528;48.514;14.394;2023-02-23T01:18:58;93474.31;;;4.11;77.93
64211;BME280;50528;48.514;14.394;2023-02-23T01:19:32;93467.70;;;4.09;77.67
64211;BME280;50528;48.514;14.394;2023-02-23T01:20:11;93468.48;;;4.09;77.71
64211;BME280;50528;48.514;14.394;2023-02-23T01:20:51;93466.14;;;4.07;77.86
64211;BME280;50528;48.514;14.394;2023-02-23T01:21:30;93468.71;;;4.07;77.78
64211;BME280;50528;48.514;14.394;2023-02-23T01:22:04;93466.41;;;4.05;77.59
64211;BME280;50528;48.514;14.394;2023-02-23T01:22:37;93465.91;;;4.04;77.65
64211;BME280;50528;48.514;14.394;2023-02-23T01:23:13;93462.09;;;4.04;77.76
64211;BME280;50528;48.514;14.394;2023-02-23T01:23:47;93463.19;;;4.04;77.57
64211;BME280;50528;48.514;14.394;2023-02-23T01:24:20;93463.06;;;4.03;77.73
64211;BME280;50528;48.514;14.394;2023-02-23T01:24:54;93461.71;;;4.03;77.72
64211;BME280;50528;48.514;14.394;2023-02-23T01:25:27;93459.35;;;4.03;77.76
64211;BME280;50528;48.514;14.394;2023-02-23T01:26:01;93460.95;;;4.03;77.67
64211;BME280;50528;48.514;14.394;2023-02-23T01:26:38;93459.27;;;4.02;77.74
64211;BME280;50528;48.514;14.394;2023-02-23T01:27:12;93460.27;;;4.03;77.57
64211;BME280;50528;48.514;14.394;2023-02-23T01:27:45;93460.80;;;4.01;77.59
64211;BME280;50528;48.514;14.394;2023-02-23T01:28:19;93461.21;;;4.01;77.62
64211;BME280;50528;48.514;14.394;2023-02-23T01:28:57;93458.35;;;4.00;77.80
64211;BME280;50528;48.514;14.394;2023-02-23T01:29:32;93463.83;;;4.00;77.73
64211;BME280;50528;48.514;14.394;2023-02-23T01:30:07;93461.60;;;3.99;77.55
64211;BME280;50528;48.514;14.394;2023-02-23T01:30:42;93459.96;;;3.99;77.77
64211;BME280;50528;48.514;14.394;2023-02-23T01:31:16;93460.45;;;3.98;77.81
64211;BME280;50528;48.514;14.394;2023-02-23T01:31:50;93460.41;;;3.98;77.76
64211;BME280;50528;48.514;14.394;2023-02-23T01:32:27;93459.61;;;3.99;77.79
64211;BME280;50528;48.514;14.394;2023-02-23T01:33:00;93460.25;;;3.98;77.74
64211;BME280;50528;48.514;14.394;2023-02-23T01:33:34;93459.72;;;3.98;77.88
64211;BME280;50528;48.514;14.394;2023-02-23T01:34:09;93461.56;;;3.98;77.87
64211;BME280;50528;48.514;14.394;2023-02-23T01:34:44;93459.84;;;3.98;77.74
64211;BME280;50528;48.514;14.394;2023-02-23T01:35:18;93460.38;;;3.97;77.72
64211;BME280;50528;48.514;14.394;2023-02-23T01:36:00;93460.05;;;3.97;77.82
64211;BME280;50528;48.514;14.394;2023-02-23T01:36:36;93463.25;;;3.96;77.86
64211;BME280;50528;48.514;14.394;2023-02-23T01:37:11;93458.08;;;3.95;77.85
64211;BME280;50528;48.514;14.394;2023-02-23T01:37:44;93461.23;;;3.94;77.83
64211;BME280;50528;48.514;14.394;2023-02-23T01:38:18;93457.33;;;3.94;78.00
64211;BME280;50528;48.514;14.394;2023-02-23T01:38:52;93461.02;;;3.94;77.90
64211;BME280;50528;48.514;14.394;2023-02-23T01:39:31;93460.50;;;3.94;77.76
64211;BME280;50528;48.514;14.394;2023-02-23T01:40:17;93462.73;;;3.92;77.69
64211;BME280;50528;48.514;14.394;2023-02-23T01:41:00;93460.66;;;3.89;77.70
64211;BME280;50528;48.514;14.394;2023-02-23T01:41:35;93459.95;;;3.88;77.68
64211;BME280;50528;48.514;14.394;2023-02-23T01:42:12;93459.45;;;3.86;77.53
64211;BME280;50528;48.514;14.394;2023-02-23T01:42:45;93461.40;;;3.86;77.69
64211;BME280;50528;48.514;14.394;2023-02-23T01:43:20;93461.77;;;3.86;77.75
64211;BME280;50528;48.514;14.394;2023-02-23T01:44:02;93462.65;;;3.85;77.70
64211;BME280;50528;48.514;14.394;2023-02-23T01:46:02;93457.86;;;3.81;77.69
64211;BME280;50528;48.514;14.394;2023-02-23T01:46:38;93460.10;;;3.79;77.87
64211;BME280;50528;48.514;14.394;2023-02-23T01:47:13;93460.27;;;3.79;77.74
64211;BME280;50528;48.514;14.394;2023-02-23T01:47:46;93459.27;;;3.79;77.71
64211;BME280;50528;48.514;14.394;2023-02-23T01:48:26;93457.59;;;3.79;77.65
64211;BME280;50528;48.514;14.394;2023-02-23T01:49:01;93459.67;;;3.77;77.67
64211;BME280;50528;48.514;14.394;2023-02-23T01:49:36;93460.23;;;3.76;77.63
64211;BME280;50528;48.514;14.394;2023-02-23T01:50:12;93456.02;;;3.75;77.62
64211;BME280;50528;48.514;14.394;2023-02-23T01:51:01;93457.52;;;3.75;77.49
64211;BME280;50528;48.514;14.394;2023-02-23T01:51:40;93457.11;;;3.72;77.60
64211;BME280;50528;48.514;14.394;2023-02-23T01:52:15;93456.92;;;3.70;77.43
64211;BME280;50528;48.514;14.394;2023-02-23T01:52:50;93457.44;;;3.70;77.60
64211;BME280;50528;48.514;14.394;2023-02-23T01:53:26;93456.52;;;3.69;77.65
64211;BME280;50528;48.514;14.394;2023-02-23T01:54:06;93450.70;;;3.67;77.58
64211;BME280;50528;48.514;14.394;2023-02-23T01:54:46;93448.63;;;3.66;77.78
64211;BME280;50528;48.514;14.394;2023-02-23T01:55:22;93453.08;;;3.65;77.51
64211;BME280;50528;48.514;14.394;2023-02-23T01:56:04;93452.17;;;3.64;77.70
64211;BME280;50528;48.514;14.394;2023-02-23T01:56:46;93452.55;;;3.63;77.72
64211;BME280;50528;48.514;14.394;2023-02-23T01:57:23;93451.06;;;3.62;77.60
64211;BME280;50528;48.514;14.394;2023-02-23T01:58:07;93447.63;;;3.62;77.69
64211;BME280;50528;48.514;14.394;2023-02-23T01:58:49;93449.99;;;3.61;77.59
64211;BME280;50528;48.514;14.394;2023-02-23T01:59:42;93448.75;;;3.60;77.52
64211;BME280;50528;48.514;14.394;2023-02-23T02:00:19;93450.09;;;3.59;77.69
64211;BME280;50528;48.514;14.394;2023-02-23T02:00:57;93449.67;;;3.58;77.86
64211;BME280;50528;48.514;14.394;2023-02-23T02:01:34;93449.32;;;3.57;77.67
64211;BME280;50528;48.514;14.394;2023-02-23T02:02:11;93452.00;;;3.59;77.68
64211;BME280;50528;48.514;14.394;2023-02-23T02:02:46;93447.77;;;3.60;77.61
64211;BME280;50528;48.514;14.394;2023-02-23T02:03:32;93446.58;;;3.58;77.64
64211;BME280;50528;48.514;14.394;2023-02-23T02:04:07;93450.23;;;3.58;77.60
64211;BME280;50528;48.514;14.394;2023-02-23T02:04:42;93447.89;;;3.59;77.46
64211;BME280;50528;48.514;14.394;2023-02-23T02:05:19;93449.15;;;3.59;77.58
64211;BME280;50528;48.514;14.394;2023-02-23T02:05:54;93447.48;;;3.57;77.25
64211;BME280;50528;48.514;14.394;2023-02-23T02:06:30;93446.11;;;3.57;77.45
64211;BME280;50528;48.514;14.394;2023-02-23T02:07:04;93448.95;;;3.56;77.16
64211;BME280;50528;48.514;14.394;2023-02-23T02:07:40;93445.56;;;3.56;77.41
64211;BME280;50528;48.514;14.394;2023-02-23T02:08:16;93450.00;;;3.55;77.35
64211;BME280;50528;48.514;14.394;2023-02-23T02:08:53;93445.71;;;3.53;77.31
64211;BME280;50528;48.514;14.394;2023-02-23T02:09:28;93444.95;;;3.52;77.54
64211;BME280;50528;48.514;14.394;2023-02-23T02:10:04;93444.57;;;3.52;77.30
64211;BME280;50528;48.514;14.394;2023-02-23T02:10:44;93443.30;;;3.51;77.39
64211;BME280;50528;48.514;14.394;2023-02-23T02:11:20;93445.18;;;3.46;77.38
64211;BME280;50528;48.514;14.394;2023-02-23T02:12:11;93441.55;;;3.44;77.42
64211;BME280;50528;48.514;14.394;2023-02-23T02:12:51;93441.96;;;3.42;77.19
64211;BME280;50528;48.514;14.394;2023-02-23T02:13:29;93439.66;;;3.41;77.44
64211;BME280;50528;48.514;14.394;2023-02-23T02:14:19;93437.83;;;3.41;77.10
64211;BME280;50528;48.514;14.394;2023-02-23T02:14:55;93441.52;;;3.39;77.40
64211;BME280;50528;48.514;14.394;2023-02-23T02:15:34;93440.19;;;3.35;77.43
64211;BME280;50528;48.514;14.394;2023-02-23T02:17:26;93442.95;;;3.35;77.50
64211;BME280;50528;48.514;14.394;2023-02-23T02:18:19;93443.28;;;3.31;77.39
64211;BME280;50528;48.514;14.394;2023-02-23T02:26:09;93440.17;;;3.11;77.64
64211;BME280;50528;48.514;14.394;2023-02-23T02:28:50;93441.72;;;3.06;77.47
64211;BME280;50528;48.514;14.394;2023-02-23T02:34:07;93438.11;;;2.95;77.15
64211;BME280;50528;48.514;14.394;2023-02-23T02:38:14;93436.63;;;2.85;77.35
64211;BME280;50528;48.514;14.394;2023-02-23T02:39:19;93437.55;;;2.84;77.24
64211;BME280;50528;48.514;14.394;2023-02-23T02:40:15;93432.66;;;2.81;77.53
64211;BME280;50528;48.514;14.394;2023-02-23T02:41:18;93436.94;;;2.82;77.57
64211;BME280;50528;48.514;14.394;2023-02-23T02:42:28;93437.30;;;2.81;77.34
64211;BME280;50528;48.514;14.394;2023-02-23T02:43:33;93436.70;;;2.80;77.36
64211;BME280;50528;48.514;14.394;2023-02-23T02:44:23;93436.74;;;2.78;77.58
64211;BME280;50528;48.514;14.394;2023-02-23T02:46:04;93436.59;;;2.78;77.50
64211;BME280;50528;48.514;14.394;2023-02-23T02:46:48;93433.35;;;2.78;77.59
64211;BME280;50528;48.514;14.394;2023-02-23T02:48:22;93432.95;;;2.79;77.86
64211;BME280;50528;48.514;14.394;2023-02-23T02:50:44;93427.61;;;2.77;77.80
64211;BME280;50528;48.514;14.394;2023-02-23T02:51:30;93431.36;;;2.74;77.74
64211;BME280;50528;48.514;14.394;2023-02-23T02:52:40;93432.70;;;2.75;77.73
64211;BME280;50528;48.514;14.394;2023-02-23T02:53:38;93431.27;;;2.74;77.56
64211;BME280;50528;48.514;14.394;2023-02-23T02:54:52;93426.44;;;2.74;77.77
64211;BME280;50528;48.514;14.394;2023-02-23T02:55:31;93425.08;;;2.75;77.80
64211;BME280;50528;48.514;14.394;2023-02-23T02:56:07;93430.98;;;2.76;77.80
64211;BME280;50528;48.514;14.394;2023-02-23T02:56:43;93423.16;;;2.74;77.94
64211;BME280;50528;48.514;14.394;2023-02-23T02:57:23;93429.95;;;2.77;78.06
64211;BME280;50528;48.514;14.394;2023-02-23T02:57:57;93428.40;;;2.78;78.06
64211;BME280;50528;48.514;14.394;2023-02-23T02:58:31;93424.64;;;2.79;77.82
64211;BME280;50528;48.514;14.394;2023-02-23T02:59:26;93427.84;;;2.80;77.92
64211;BME280;50528;48.514;14.394;2023-02-23T03:00:23;93428.45;;;2.78;78.16
64211;BME280;50528;48.514;14.394;2023-02-23T03:01:18;93423.23;;;2.76;78.06
64211;BME280;50528;48.514;14.394;2023-02-23T03:02:19;93417.21;;;2.69;78.01
64211;BME280;50528;48.514;14.394;2023-02-23T03:03:45;93427.31;;;2.75;78.18
64211;BME280;50528;48.514;14.394;2023-02-23T03:04:39;93428.23;;;2.72;78.20
64211;BME280;50528;48.514;14.394;2023-02-23T03:05:44;93428.31;;;2.72;78.19
64211;BME280;50528;48.514;14.394;2023-02-23T03:06:59;93427.77;;;2.70;78.21
64211;BME280;50528;48.514;14.394;2023-02-23T03:09:16;93428.73;;;2.67;78.04
64211;BME280;50528;48.514;14.394;2023-02-23T03:11:43;93432.59;;;2.66;78.21
64211;BME280;50528;48.514;14.394;2023-02-23T03:13:02;93430.27;;;2.65;78.15
64211;BME280;50528;48.514;14.394;2023-02-23T03:15:14;93430.89;;;2.64;78.15
64211;BME280;50528;48.514;14.394;2023-02-23T03:16:29;93432.08;;;2.64;78.16
64211;BME280;50528;48.514;14.394;2023-02-23T03:17:42;93426.59;;;2.60;78.19
64211;BME280;50528;48.514;14.394;2023-02-23T03:19:57;93433.10;;;2.62;78.31
64211;BME280;50528;48.514;14.394;2023-02-23T03:20:53;93434.85;;;2.63;78.39
64211;BME280;50528;48.514;14.394;2023-02-23T03:24:32;93439.93;;;2.65;78.56
64211;BME280;50528;48.514;14.394;2023-02-23T03:25:40;93436.13;;;2.63;78.07
64211;BME280;50528;48.514;14.394;2023-02-23T03:26:44;93438.99;;;2.65;78.57
64211;BME280;50528;48.514;14.394;2023-02-23T03:29:00;93438.80;;;2.66;78.68
64211;BME280;50528;48.514;14.394;2023-02-23T03:30:05;93436.89;;;2.67;78.76
64211;BME280;50528;48.514;14.394;2023-02-23T03:32:24;93437.25;;;2.68;78.65
64211;BME280;50528;48.514;14.394;2023-02-23T03:33:27;93435.66;;;2.69;78.68
64211;BME280;50528;48.514;14.394;2023-02-23T03:34:35;93437.52;;;2.69;78.99
64211;BME280;50528;48.514;14.394;2023-02-23T03:38:13;93434.70;;;2.72;79.21
64211;BME280;50528;48.514;14.394;2023-02-23T03:40:24;93438.49;;;2.73;79.11
64211;BME280;50528;48.514;14.394;2023-02-23T03:41:19;93437.14;;;2.74;78.98
64211;BME280;50528;48.514;14.394;2023-02-23T03:42:17;93439.25;;;2.75;78.91
64211;BME280;50528;48.514;14.394;2023-02-23T03:43:16;93439.14;;;2.76;79.09
64211;BME280;50528;48.514;14.394;2023-02-23T03:44:18;93437.97;;;2.76;79.41
64211;BME280;50528;48.514;14.394;2023-02-23T03:45:18;93440.66;;;2.77;79.41
64211;BME280;50528;48.514;14.394;2023-02-23T03:46:12;93439.18;;;2.79;79.47
64211;BME280;50528;48.514;14.394;2023-02-23T03:47:08;93438.05;;;2.80;79.55
64211;BME280;50528;48.514;14.394;2023-02-23T03:48:06;93438.73;;;2.81;79.59
64211;BME280;50528;48.514;14.394;2023-02-23T03:49:02;93440.73;;;2.82;79.16
64211;BME280;50528;48.514;14.394;2023-02-23T03:49:57;93436.49;;;2.81;79.41
64211;BME280;50528;48.514;14.394;2023-02-23T03:50:53;93437.27;;;2.83;79.24
64211;BME280;50528;48.514;14.394;2023-02-23T03:51:50;93437.11;;;2.83;79.40
64211;BME280;50528;48.514;14.394;2023-02-23T03:52:51;93442.77;;;2.83;79.38
64211;BME280;50528;48.514;14.394;2023-02-23T03:55:03;93439.81;;;2.81;79.36
64211;BME280;50528;48.514;14.394;2023-02-23T03:55:57;93439.48;;;2.81;79.30
64211;BME280;50528;48.514;14.394;2023-02-23T03:56:52;93438.05;;;2.80;79.30
64211;BME280;50528;48.514;14.394;2023-02-23T03:57:49;93439.81;;;2.80;79.75
64211;BME280;50528;48.514;14.394;2023-02-23T03:58:49;93439.95;;;2.78;79.52
64211;BME280;50528;48.514;14.394;2023-02-23T03:59:57;93440.30;;;2.79;79.60
64211;BME280;50528;48.514;14.394;2023-02-23T04:00:53;93442.13;;;2.79;79.63
64211;BME280;50528;48.514;14.394;2023-02-23T04:01:49;93439.89;;;2.81;79.76
64211;BME280;50528;48.514;14.394;2023-02-23T04:02:46;93443.84;;;2.82;79.51
64211;BME280;50528;48.514;14.394;2023-02-23T04:03:41;93444.52;;;2.81;79.91
64211;BME280;50528;48.514;14.394;2023-02-23T04:04:35;93440.48;;;2.83;79.67
64211;BME280;50528;48.514;14.394;2023-02-23T04:05:30;93443.18;;;2.83;79.72
64211;BME280;50528;48.514;14.394;2023-02-23T04:06:27;93447.17;;;2.83;79.56
64211;BME280;50528;48.514;14.394;2023-02-23T04:07:20;93444.21;;;2.84;79.81
64211;BME280;50528;48.514;14.394;2023-02-23T04:08:15;93445.38;;;2.85;80.04
64211;BME280;50528;48.514;14.394;2023-02-23T04:09:09;93438.63;;;2.86;79.75
64211;BME280;50528;48.514;14.394;2023-02-23T04:10:02;93443.05;;;2.86;80.04
64211;BME280;50528;48.514;14.394;2023-02-23T04:11:26;93443.80;;;2.87;79.81
64211;BME280;50528;48.514;14.394;2023-02-23T04:12:28;93446.40;;;2.87;79.86
64211;BME280;50528;48.514;14.394;2023-02-23T04:13:25;93445.14;;;2.86;79.59
64211;BME280;50528;48.514;14.394;2023-02-23T04:14:03;93445.39;;;2.88;80.07
64211;BME280;50528;48.514;14.394;2023-02-23T04:15:26;93444.25;;;2.91;79.99
64211;BME280;50528;48.514;14.394;2023-02-23T04:16:05;93443.58;;;2.92;79.91
64211;BME280;50528;48.514;14.394;2023-02-23T04:16:38;93442.34;;;2.93;80.17
64211;BME280;50528;48.514;14.394;2023-02-23T04:17:14;93442.84;;;2.95;80.04
64211;BME280;50528;48.514;14.394;2023-02-23T04:17:48;93443.19;;;2.96;79.98
64211;BME280;50528;48.514;14.394;2023-02-23T04:18:31;93445.90;;;2.98;80.07
64211;BME280;50528;48.514;14.394;2023-02-23T04:19:05;93438.62;;;2.94;80.24
64211;BME280;50528;48.514;14.394;2023-02-23T04:19:48;93447.75;;;3.01;80.01